Time;durP1;ratioP1;P1;durP2;ratioP2;P2;SDS_P1;SDS_P2;PMS_P1;PMS_P2;Temp;Humidity;BMP_temperature;BMP_pressure;BME280_temperature;BME280_humidity;BME280_pressure;Samples;Min_cycle;Max_cycle;Signal;HPM_P1;HPM_P2
2021/10/04 00:00:57;;;;;;;2.00;1.80;;;15.10;94.30;;;;;;5007998;28;20273;-90
2021/10/04 00:03:23;;;;;;;1.97;1.80;;;15.10;93.90;;;;;;5009457;28;20233;-89
2021/10/04 00:05:49;;;;;;;2.30;1.70;;;15.10;94.20;;;;;;4993137;28;20286;-90
2021/10/04 00:08:15;;;;;;;2.53;1.90;;;15.00;94.60;;;;;;4991621;28;20280;-90
2021/10/04 00:10:41;;;;;;;1.87;1.77;;;15.00;94.80;;;;;;4991344;28;20206;-89
2021/10/04 00:13:07;;;;;;;2.60;1.97;;;15.00;94.40;;;;;;5005410;28;20235;-89
2021/10/04 00:15:34;;;;;;;1.70;1.60;;;15.00;94.70;;;;;;5019803;28;20207;-89
2021/10/04 00:18:01;;;;;;;2.87;1.53;;;14.90;95.30;;;;;;5007883;28;20209;-90
2021/10/04 00:20:28;;;;;;;2.53;1.80;;;15.00;95.00;;;;;;5020711;28;20205;-89
2021/10/04 00:22:55;;;;;;;1.93;1.83;;;15.00;94.60;;;;;;4982325;28;20193;-88
2021/10/04 00:25:23;;;;;;;2.20;2.00;;;14.90;94.80;;;;;;5014797;28;20185;-90
2021/10/04 00:27:49;;;;;;;3.20;1.80;;;14.90;95.50;;;;;;5017330;28;20189;-90
2021/10/04 00:30:16;;;;;;;2.20;1.57;;;15.00;94.50;;;;;;5015211;28;20341;-90
2021/10/04 00:32:45;;;;;;;2.57;1.83;;;15.10;94.00;;;;;;4997442;28;20196;-89
2021/10/04 00:35:14;;;;;;;1.80;1.70;;;15.10;93.80;;;;;;5033286;28;20188;-89
2021/10/04 00:37:40;;;;;;;2.00;1.90;;;15.00;94.30;;;;;;5041875;28;20544;-89
2021/10/04 00:40:09;;;;;;;1.90;1.70;;;15.00;93.70;;;;;;5015734;28;20227;-87
2021/10/04 00:42:36;;;;;;;2.50;1.70;;;15.10;94.10;;;;;;5004534;28;20192;-89
2021/10/04 00:45:03;;;;;;;2.00;1.80;;;15.00;94.20;;;;;;5017759;28;20190;-89
2021/10/04 00:47:31;;;;;;;4.00;2.00;;;15.10;94.30;;;;;;5016272;28;20197;-89
2021/10/04 00:49:57;;;;;;;1.67;1.57;;;15.00;95.00;;;;;;5016308;28;20204;-89
2021/10/04 00:52:23;;;;;;;2.80;1.60;;;15.00;94.10;;;;;;5016861;28;20220;-89
2021/10/04 00:54:49;;;;;;;1.77;1.50;;;15.00;94.30;;;;;;5017139;28;20188;-89
2021/10/04 00:57:15;;;;;;;2.47;1.50;;;15.20;94.00;;;;;;4995266;28;20207;-89
2021/10/04 00:59:41;;;;;;;1.87;1.77;;;15.20;94.00;;;;;;5019903;28;20188;-90
2021/10/04 01:02:09;;;;;;;1.90;1.80;;;15.30;93.50;;;;;;5007671;28;20205;-88
2021/10/04 01:04:36;;;;;;;1.87;1.67;;;15.30;93.50;;;;;;5023339;28;20217;-89
2021/10/04 01:07:01;;;;;;;1.60;1.50;;;15.10;93.70;;;;;;5003287;28;20199;-90
2021/10/04 01:09:28;;;;;;;1.70;1.60;;;14.90;95.00;;;;;;5019202;28;20259;-87
2021/10/04 01:11:56;;;;;;;2.37;1.77;;;14.90;95.00;;;;;;5018911;28;20209;-88
2021/10/04 01:14:25;;;;;;;1.70;1.60;;;14.90;95.00;;;;;;5001120;28;20241;-89
2021/10/04 01:16:52;;;;;;;2.53;1.90;;;14.90;94.60;;;;;;5034677;28;20196;-88
2021/10/04 01:19:18;;;;;;;1.73;1.63;;;14.80;95.40;;;;;;5026993;28;20237;-88
2021/10/04 01:21:44;;;;;;;1.70;1.60;;;14.80;95.70;;;;;;5014369;28;20239;-89
2021/10/04 01:24:11;;;;;;;1.67;1.57;;;14.60;95.90;;;;;;5012894;28;20189;-88
2021/10/04 01:26:38;;;;;;;2.00;1.80;;;14.50;96.70;;;;;;5024886;28;20580;-89
2021/10/04 01:29:06;;;;;;;1.70;1.60;;;14.40;97.40;;;;;;5012311;28;20632;-88
2021/10/04 01:31:32;;;;;;;1.90;1.80;;;14.30;98.50;;;;;;5026795;28;20220;-89
2021/10/04 01:33:59;;;;;;;2.93;1.90;;;14.20;99.00;;;;;;5014557;28;20214;-88
2021/10/04 01:36:27;;;;;;;2.77;2.10;;;14.20;99.30;;;;;;5015854;28;20257;-89
2021/10/04 01:38:54;;;;;;;2.33;1.80;;;14.10;99.80;;;;;;5001570;28;20662;-89
2021/10/04 01:41:23;;;;;;;2.50;1.93;;;14.10;97.90;;;;;;5013392;28;20227;-88
2021/10/04 01:43:50;;;;;;;2.07;1.90;;;14.10;97.60;;;;;;5015311;28;20192;-89
2021/10/04 01:46:16;;;;;;;2.87;1.90;;;14.00;97.90;;;;;;5019201;28;20194;-89
2021/10/04 01:48:42;;;;;;;1.83;1.73;;;14.00;97.80;;;;;;5021481;28;20189;-89
2021/10/04 01:51:08;;;;;;;3.90;2.20;;;13.90;99.30;;;;;;5023513;28;20201;-89
2021/10/04 01:53:34;;;;;;;1.70;1.50;;;13.80;97.90;;;;;;5032978;28;20280;-88
2021/10/04 01:56:01;;;;;;;2.47;1.50;;;13.70;99.10;;;;;;5013534;28;20614;-89
2021/10/04 01:58:27;;;;;;;1.70;1.60;;;13.80;98.20;;;;;;5024467;28;20291;-89
2021/10/04 02:00:53;;;;;;;2.20;1.80;;;13.80;98.90;;;;;;5045788;28;20296;-89
2021/10/04 02:03:19;;;;;;;2.43;1.83;;;13.90;98.00;;;;;;5016573;28;20220;-89
2021/10/04 02:05:45;;;;;;;2.30;1.60;;;13.80;97.80;;;;;;5029804;28;20228;-89
2021/10/04 02:08:11;;;;;;;2.00;1.80;;;13.90;97.90;;;;;;5031624;28;20210;-89
2021/10/04 02:10:38;;;;;;;3.50;1.70;;;14.00;97.80;;;;;;5030243;28;20213;-89
2021/10/04 02:13:07;;;;;;;1.90;1.60;;;13.90;96.80;;;;;;5026953;28;20231;-88
2021/10/04 02:15:34;;;;;;;1.73;1.63;;;13.80;96.70;;;;;;5028926;28;20225;-89
2021/10/04 02:18:00;;;;;;;2.43;1.70;;;13.80;98.00;;;;;;5027957;28;20217;-87
2021/10/04 02:20:28;;;;;;;2.17;1.60;;;13.70;97.30;;;;;;5028098;28;20229;-87
2021/10/04 02:22:55;;;;;;;1.60;1.50;;;13.70;97.20;;;;;;5028693;28;20296;-89
2021/10/04 02:25:22;;;;;;;1.90;1.70;;;13.70;97.80;;;;;;5029806;28;20276;-89
2021/10/04 02:27:48;;;;;;;1.60;1.50;;;13.70;98.70;;;;;;5029074;28;20181;-87
2021/10/04 02:30:21;;;;;;;2.90;1.70;;;13.70;98.00;;;;;;4978560;28;20224;-87
2021/10/04 02:32:48;;;;;;;2.10;1.80;;;13.80;97.60;;;;;;5009620;28;20211;-87
2021/10/04 02:35:14;;;;;;;1.63;1.40;;;13.80;97.90;;;;;;5012759;28;20256;-89
2021/10/04 02:37:40;;;;;;;1.63;1.50;;;13.90;97.20;;;;;;5028094;28;20196;-89
2021/10/04 02:40:08;;;;;;;3.10;1.63;;;14.00;96.50;;;;;;5011731;28;20673;-89
2021/10/04 02:42:34;;;;;;;1.43;1.40;;;14.00;96.40;;;;;;5011525;28;20611;-89
2021/10/04 02:45:02;;;;;;;1.80;1.70;;;13.90;96.80;;;;;;5009659;28;20256;-87
2021/10/04 02:47:28;;;;;;;2.50;1.53;;;13.80;97.30;;;;;;5026821;28;20234;-89
2021/10/04 02:49:55;;;;;;;2.50;1.67;;;13.80;97.60;;;;;;4994233;28;20702;-89
2021/10/04 02:52:21;;;;;;;2.30;1.60;;;14.00;97.10;;;;;;5022357;28;20208;-87
2021/10/04 02:54:47;;;;;;;1.80;1.50;;;14.10;96.30;;;;;;5029961;28;20194;-89
2021/10/04 02:57:13;;;;;;;1.90;1.67;;;14.10;96.20;;;;;;5030400;28;20405;-90
2021/10/04 02:59:42;;;;;;;3.90;1.70;;;14.10;96.00;;;;;;5032090;28;20679;-89
2021/10/04 03:02:08;;;;;;;2.40;1.53;;;14.20;95.50;;;;;;5026544;28;21052;-89
2021/10/04 03:04:33;;;;;;;1.60;1.50;;;14.20;95.50;;;;;;5028152;28;20172;-90
2021/10/04 03:06:59;;;;;;;1.60;1.50;;;14.30;94.70;;;;;;5029313;28;20233;-89
2021/10/04 03:09:25;;;;;;;2.60;1.80;;;14.30;95.00;;;;;;5026595;28;20185;-89
2021/10/04 03:11:51;;;;;;;1.30;1.30;;;14.20;95.20;;;;;;5026666;28;20221;-89
2021/10/04 03:14:20;;;;;;;2.40;1.93;;;14.30;95.50;;;;;;5029009;28;20597;-89
2021/10/04 03:16:45;;;;;;;2.00;1.50;;;14.20;94.90;;;;;;5027994;28;20230;-89
2021/10/04 03:19:11;;;;;;;3.20;1.57;;;14.00;95.80;;;;;;5026895;28;20235;-89
2021/10/04 03:21:37;;;;;;;2.20;1.60;;;13.90;95.50;;;;;;5013472;28;20236;-89
2021/10/04 03:24:03;;;;;;;2.63;1.77;;;13.80;96.60;;;;;;5028647;28;20280;-90
2021/10/04 03:26:29;;;;;;;1.73;1.63;;;13.70;97.60;;;;;;5026733;28;20202;-89
2021/10/04 03:28:54;;;;;;;2.03;1.43;;;13.70;98.00;;;;;;5035550;28;20204;-89
2021/10/04 03:31:20;;;;;;;2.07;1.87;;;13.70;97.30;;;;;;5010284;28;20208;-90
2021/10/04 03:33:46;;;;;;;1.90;1.70;;;13.80;97.10;;;;;;5025740;28;20203;-89
2021/10/04 03:36:11;;;;;;;2.27;1.63;;;13.70;97.20;;;;;;5025665;28;20190;-90
2021/10/04 03:38:37;;;;;;;1.80;1.70;;;13.80;97.50;;;;;;5022538;28;20194;-89
2021/10/04 03:41:03;;;;;;;1.93;1.73;;;13.80;96.50;;;;;;5026696;28;20708;-89
2021/10/04 03:43:29;;;;;;;2.23;1.80;;;13.80;97.40;;;;;;5030499;28;20197;-89
2021/10/04 03:45:54;;;;;;;2.43;1.67;;;13.70;97.60;;;;;;5019747;28;20212;-88
2021/10/04 03:48:20;;;;;;;3.83;2.00;;;13.90;97.00;;;;;;5052354;28;20198;-90
2021/10/04 03:50:46;;;;;;;2.07;1.80;;;13.90;96.90;;;;;;5014271;28;20262;-90
2021/10/04 03:53:12;;;;;;;1.93;1.83;;;13.80;97.00;;;;;;5028780;28;20196;-89
2021/10/04 03:55:38;;;;;;;2.23;1.90;;;13.90;96.80;;;;;;5026285;28;20700;-89
2021/10/04 03:58:04;;;;;;;2.20;1.80;;;13.90;96.60;;;;;;5008242;28;20211;-89
2021/10/04 04:00:30;;;;;;;2.43;1.90;;;14.00;96.70;;;;;;5026034;28;20268;-86
2021/10/04 04:02:55;;;;;;;3.23;2.00;;;14.00;96.30;;;;;;5028143;28;20260;-88
2021/10/04 04:05:21;;;;;;;2.77;1.97;;;14.00;96.00;;;;;;5000330;28;20191;-88
2021/10/04 04:07:47;;;;;;;2.00;1.77;;;13.90;96.80;;;;;;5012814;28;20245;-88
2021/10/04 04:10:16;;;;;;;1.70;1.60;;;13.90;96.50;;;;;;5036844;28;20204;-87
2021/10/04 04:12:45;;;;;;;2.83;2.03;;;13.90;97.20;;;;;;5014015;28;20207;-88
2021/10/04 04:15:12;;;;;;;3.00;2.27;;;13.90;97.10;;;;;;5014638;28;20201;-88
2021/10/04 04:17:38;;;;;;;2.13;1.90;;;14.00;97.20;;;;;;5017207;28;20273;-88
2021/10/04 04:20:10;;;;;;;3.33;1.80;;;14.10;96.50;;;;;;5017791;28;20268;-88
2021/10/04 04:22:37;;;;;;;2.30;2.10;;;14.00;96.20;;;;;;5017629;28;20210;-88
2021/10/04 04:25:07;;;;;;;2.40;2.20;;;14.00;96.60;;;;;;5026909;28;21773;-87
2021/10/04 04:27:34;;;;;;;2.07;1.83;;;13.90;96.30;;;;;;5004518;28;20216;-87
2021/10/04 04:30:01;;;;;;;2.53;2.33;;;14.00;97.00;;;;;;5020543;28;20218;-88
2021/10/04 04:32:28;;;;;;;2.53;2.33;;;14.00;97.30;;;;;;5005273;28;20209;-88
2021/10/04 04:34:55;;;;;;;2.40;2.20;;;13.90;97.40;;;;;;5005087;28;20234;-88
2021/10/04 04:37:22;;;;;;;2.83;2.30;;;13.70;97.40;;;;;;4995198;28;20198;-88
2021/10/04 04:39:47;;;;;;;2.90;2.30;;;13.80;98.20;;;;;;5012438;28;20251;-88
2021/10/04 04:42:14;;;;;;;3.23;2.10;;;13.70;98.50;;;;;;5018754;28;20247;-88
2021/10/04 04:44:40;;;;;;;1.87;1.77;;;13.70;98.90;;;;;;5032360;28;20277;-88
2021/10/04 04:47:06;;;;;;;1.73;1.63;;;13.80;98.50;;;;;;5012984;28;20239;-88
2021/10/04 04:49:32;;;;;;;2.20;2.00;;;13.70;98.00;;;;;;4998629;28;20201;-87
2021/10/04 04:51:59;;;;;;;2.83;1.90;;;13.60;98.90;;;;;;4981143;28;20221;-86
2021/10/04 04:54:25;;;;;;;2.03;1.83;;;13.50;99.50;;;;;;4997083;28;20598;-87
2021/10/04 04:56:55;;;;;;;2.20;2.00;;;13.50;99.90;;;;;;4981184;28;20202;-87
2021/10/04 04:59:22;;;;;;;2.87;1.90;;;13.40;99.50;;;;;;5018070;28;20197;-87
2021/10/04 05:01:48;;;;;;;2.00;1.90;;;13.30;99.90;;;;;;5015924;28;20224;-87
2021/10/04 05:04:14;;;;;;;2.37;1.63;;;13.30;99.90;;;;;;5003431;28;20193;-87
2021/10/04 05:06:40;;;;;;;1.80;1.70;;;13.30;99.90;;;;;;5022132;28;20247;-87
2021/10/04 05:09:07;;;;;;;3.17;1.70;;;13.30;99.90;;;;;;5034600;28;20649;-88
2021/10/04 05:11:33;;;;;;;2.30;1.60;;;13.40;99.80;;;;;;5014262;28;20220;-87
2021/10/04 05:14:00;;;;;;;1.63;1.53;;;13.40;99.00;;;;;;4999345;28;20197;-88
2021/10/04 05:16:25;;;;;;;1.90;1.60;;;13.30;99.30;;;;;;5035655;28;20644;-88
2021/10/04 05:18:51;;;;;;;3.07;1.80;;;13.30;99.90;;;;;;5039212;28;20269;-87
2021/10/04 05:21:17;;;;;;;2.73;1.40;;;13.30;99.90;;;;;;5032928;28;20238;-87
2021/10/04 05:23:42;;;;;;;2.00;1.80;;;13.20;99.90;;;;;;5038399;28;20948;-87
2021/10/04 05:26:08;;;;;;;1.60;1.50;;;13.40;99.90;;;;;;5037817;28;20201;-88
2021/10/04 05:28:36;;;;;;;1.73;1.63;;;13.30;99.30;;;;;;5019595;28;20201;-87
2021/10/04 05:31:02;;;;;;;1.60;1.50;;;13.20;99.90;;;;;;5022431;28;20216;-87
2021/10/04 05:33:33;;;;;;;3.13;1.70;;;13.30;99.80;;;;;;5021299;28;20285;-88
2021/10/04 05:36:00;;;;;;;3.00;1.80;;;13.30;99.80;;;;;;5021164;28;20248;-88
2021/10/04 05:38:27;;;;;;;3.07;1.80;;;13.20;99.90;;;;;;5034479;28;20204;-87
2021/10/04 05:40:54;;;;;;;1.60;1.50;;;13.20;99.90;;;;;;5013388;28;20796;-88
2021/10/04 05:43:21;;;;;;;4.70;1.60;;;13.00;99.90;;;;;;5015728;28;20262;-87
2021/10/04 05:45:48;;;;;;;1.83;1.73;;;13.10;99.60;;;;;;5019912;28;20211;-87
2021/10/04 05:48:15;;;;;;;1.60;1.50;;;13.20;99.50;;;;;;5028039;28;20193;-87
2021/10/04 05:50:44;;;;;;;1.50;1.40;;;13.20;99.40;;;;;;5016538;28;20217;-87
2021/10/04 05:53:13;;;;;;;1.50;1.40;;;13.10;99.70;;;;;;5012392;28;20185;-87
2021/10/04 05:55:41;;;;;;;1.43;1.33;;;13.30;99.20;;;;;;5021636;28;20203;-87
2021/10/04 05:58:10;;;;;;;1.80;1.70;;;13.30;98.60;;;;;;5015487;28;20204;-88
2021/10/04 06:00:39;;;;;;;1.80;1.70;;;13.10;99.70;;;;;;4993151;28;20212;-87
2021/10/04 06:03:06;;;;;;;2.03;1.40;;;13.10;99.90;;;;;;5000779;28;20204;-88
2021/10/04 06:05:35;;;;;;;1.87;1.63;;;13.10;99.60;;;;;;5017867;28;20199;-88
2021/10/04 06:08:02;;;;;;;1.53;1.43;;;13.20;98.70;;;;;;5001095;28;20189;-88
2021/10/04 06:10:29;;;;;;;4.40;1.67;;;13.20;99.10;;;;;;5030335;28;20303;-87
2021/10/04 06:12:55;;;;;;;3.40;1.77;;;13.20;99.30;;;;;;5016430;28;20181;-87
2021/10/04 06:15:23;;;;;;;2.07;1.50;;;13.10;99.50;;;;;;5016150;28;20244;-87
2021/10/04 06:17:51;;;;;;;1.60;1.50;;;13.20;99.20;;;;;;5001264;28;20213;-88
2021/10/04 06:20:19;;;;;;;1.60;1.50;;;13.20;98.70;;;;;;5001903;28;20502;-88
2021/10/04 06:22:45;;;;;;;1.47;1.37;;;13.30;98.60;;;;;;5002867;28;20307;-87
2021/10/04 06:25:14;;;;;;;2.97;1.60;;;13.30;98.80;;;;;;5036888;28;20271;-87
2021/10/04 06:27:42;;;;;;;1.60;1.50;;;13.30;98.10;;;;;;5002200;28;20213;-87
2021/10/04 06:30:09;;;;;;;1.67;1.53;;;13.30;99.10;;;;;;5015072;28;20275;-87
2021/10/04 06:32:37;;;;;;;1.63;1.53;;;13.20;99.30;;;;;;5015202;28;20296;-86
2021/10/04 06:35:04;;;;;;;1.60;1.50;;;13.20;99.30;;;;;;5014051;28;20236;-87
2021/10/04 06:37:31;;;;;;;1.50;1.40;;;13.20;99.20;;;;;;4997382;28;20199;-88
2021/10/04 06:39:57;;;;;;;1.67;1.37;;;13.30;99.40;;;;;;5012114;28;20273;-89
2021/10/04 06:42:26;;;;;;;2.20;1.60;;;13.20;99.30;;;;;;5028295;28;20272;-87
2021/10/04 06:44:53;;;;;;;1.60;1.50;;;13.20;99.60;;;;;;4982248;28;20230;-88
2021/10/04 06:47:20;;;;;;;2.83;1.53;;;13.10;99.90;;;;;;5011856;28;20188;-88
2021/10/04 06:49:46;;;;;;;1.60;1.50;;;13.10;99.90;;;;;;4998042;28;20196;-88
2021/10/04 06:52:12;;;;;;;2.13;1.60;;;13.10;99.90;;;;;;4977521;28;20213;-88
2021/10/04 06:54:38;;;;;;;1.80;1.70;;;13.10;99.90;;;;;;4992661;28;20200;-88
2021/10/04 06:57:04;;;;;;;2.87;1.50;;;13.20;99.90;;;;;;4997827;28;20284;-88
2021/10/04 06:59:33;;;;;;;1.70;1.60;;;13.10;99.90;;;;;;4993674;28;20215;-88
2021/10/04 07:01:59;;;;;;;1.67;1.50;;;13.10;99.90;;;;;;4996697;28;20301;-87
2021/10/04 07:04:24;;;;;;;1.60;1.50;;;13.20;99.90;;;;;;4995786;28;20213;-88
2021/10/04 07:06:50;;;;;;;2.67;1.57;;;13.20;99.90;;;;;;5012679;28;20223;-88
2021/10/04 07:09:16;;;;;;;1.90;1.70;;;13.20;99.90;;;;;;5014285;28;20204;-88
2021/10/04 07:11:42;;;;;;;1.87;1.67;;;13.20;99.90;;;;;;4997981;28;20254;-88
2021/10/04 07:14:09;;;;;;;2.40;1.80;;;13.10;99.90;;;;;;4997925;28;20229;-88
2021/10/04 07:16:35;;;;;;;1.40;1.40;;;13.10;99.90;;;;;;5016066;28;20803;-88
2021/10/04 07:19:03;;;;;;;2.97;2.13;;;13.20;99.90;;;;;;5012532;28;20283;-88
2021/10/04 07:21:31;;;;;;;1.80;1.70;;;13.20;99.90;;;;;;5012132;28;20220;-88
2021/10/04 07:23:59;;;;;;;2.00;1.80;;;13.20;99.90;;;;;;5030464;28;20192;-87
2021/10/04 07:26:26;;;;;;;3.27;2.03;;;13.00;99.90;;;;;;4996968;28;20794;-87
2021/10/04 07:28:53;;;;;;;2.73;1.93;;;13.00;99.90;;;;;;5011777;28;20276;-88
2021/10/04 07:31:19;;;;;;;2.67;1.80;;;13.10;99.90;;;;;;5030777;28;20220;-87
2021/10/04 07:33:45;;;;;;;2.30;1.77;;;13.10;99.90;;;;;;5012010;28;20216;-87
2021/10/04 07:36:12;;;;;;;2.80;1.97;;;13.10;99.90;;;;;;5036409;28;20219;-87
2021/10/04 07:38:38;;;;;;;1.93;1.70;;;13.00;99.90;;;;;;5024679;28;20197;-88
2021/10/04 07:41:06;;;;;;;2.80;1.70;;;13.10;99.90;;;;;;5016077;28;20228;-87
2021/10/04 07:43:33;;;;;;;2.67;1.87;;;13.20;99.90;;;;;;5016764;28;20219;-88
2021/10/04 07:46:01;;;;;;;1.67;1.57;;;13.30;99.90;;;;;;5016099;28;20340;-87
2021/10/04 07:48:27;;;;;;;3.20;1.80;;;13.10;99.90;;;;;;5012807;28;20694;-88
2021/10/04 07:50:54;;;;;;;2.20;1.90;;;13.20;99.90;;;;;;5012561;28;20217;-87
2021/10/04 07:53:21;;;;;;;1.73;1.63;;;13.20;99.90;;;;;;4980369;28;20204;-87
2021/10/04 07:55:47;;;;;;;2.70;1.90;;;13.30;99.90;;;;;;4982382;28;20201;-87
2021/10/04 07:58:13;;;;;;;1.80;1.70;;;13.30;99.90;;;;;;4998038;28;20192;-87
2021/10/04 08:00:39;;;;;;;2.23;1.73;;;13.30;99.90;;;;;;4996944;28;20258;-88
2021/10/04 08:03:05;;;;;;;2.73;1.73;;;13.20;99.90;;;;;;5012301;28;20200;-87
2021/10/04 08:05:32;;;;;;;2.00;1.90;;;13.20;99.90;;;;;;5007477;28;20248;-87
2021/10/04 08:07:58;;;;;;;4.30;1.90;;;13.10;99.90;;;;;;4994985;28;20310;-87
2021/10/04 08:10:24;;;;;;;2.57;2.37;;;13.10;99.90;;;;;;4990316;28;20221;-88
2021/10/04 08:12:51;;;;;;;2.63;2.33;;;13.10;99.90;;;;;;4999770;28;20536;-87
2021/10/04 08:15:18;;;;;;;2.50;2.30;;;13.20;99.90;;;;;;5044816;28;20212;-88
2021/10/04 08:17:44;;;;;;;3.23;2.40;;;13.20;99.90;;;;;;5016183;28;20568;-88
2021/10/04 08:20:11;;;;;;;1.83;1.73;;;13.20;99.90;;;;;;4983855;28;20612;-87
2021/10/04 08:22:38;;;;;;;1.70;1.60;;;13.20;99.90;;;;;;5034231;28;20205;-89
2021/10/04 08:25:07;;;;;;;2.20;2.00;;;13.20;99.90;;;;;;5001571;28;20188;-88
2021/10/04 08:27:37;;;;;;;3.40;1.70;;;13.10;99.90;;;;;;5035028;28;20555;-87
2021/10/04 08:30:04;;;;;;;2.10;1.90;;;13.20;99.90;;;;;;5002723;28;20189;-89
2021/10/04 08:32:30;;;;;;;2.07;1.87;;;13.20;99.90;;;;;;5015021;28;20240;-88
2021/10/04 08:35:08;;;;;;;;;;;;;;;;;;;;;
2021/10/04 08:37:35;;;;;;;1.73;1.63;;;13.20;99.90;;;;;;5016216;28;20195;-88
2021/10/04 08:40:17;;;;;;;2.73;2.10;;;13.30;99.90;;;;;;5038323;28;20191;-89
2021/10/04 08:42:47;;;;;;;2.30;2.10;;;13.20;99.90;;;;;;5023748;28;20263;-89
2021/10/04 08:45:19;;;;;;;2.13;2.03;;;13.20;99.90;;;;;;5023703;28;20181;-89
2021/10/04 08:50:58;;;;;;;1.90;1.80;;;13.20;99.90;;;;;;5025260;28;20219;-88
2021/10/04 08:53:27;;;;;;;2.60;2.40;;;13.20;99.90;;;;;;5018062;28;20202;-89
2021/10/04 08:55:58;;;;;;;2.53;1.87;;;13.20;99.90;;;;;;5005019;28;20252;-89
2021/10/04 08:58:35;;;;;;;1.90;1.80;;;13.30;99.90;;;;;;5018556;28;20192;-88
2021/10/04 09:01:03;;;;;;;2.70;1.97;;;13.30;99.90;;;;;;5035917;28;20209;-87
2021/10/04 09:04:03;;;;;;;3.03;2.30;;;13.30;99.90;;;;;;5017751;28;20194;-87
2021/10/04 09:06:47;;;;;;;2.50;2.10;;;13.30;99.90;;;;;;4997213;28;20692;-87
2021/10/04 09:09:17;;;;;;;2.40;1.90;;;13.40;99.90;;;;;;5017582;28;20194;-87
2021/10/04 09:12:08;;;;;;;2.77;1.97;;;13.50;99.90;;;;;;5019768;28;20219;-89
2021/10/04 09:14:45;;;;;;;1.80;1.70;;;13.50;99.60;;;;;;5015704;28;20702;-88
2021/10/04 09:18:09;;;;;;;2.10;1.90;;;13.50;99.90;;;;;;5034008;28;20188;-88
2021/10/04 09:23:55;;;;;;;2.47;2.13;;;13.50;99.90;;;;;;5015920;28;20229;-88
2021/10/04 09:27:19;;;;;;;2.97;2.07;;;13.40;99.50;;;;;;5015489;28;20186;-89
2021/10/04 09:30:30;;;;;;;2.07;1.97;;;13.40;99.90;;;;;;4996847;28;20283;-88
2021/10/04 09:33:04;;;;;;;1.83;1.73;;;13.40;99.90;;;;;;4986737;28;20217;-88
2021/10/04 09:35:33;;;;;;;3.17;2.10;;;13.60;99.90;;;;;;4978065;28;20317;-88
2021/10/04 09:38:04;;;;;;;1.83;1.70;;;13.70;99.40;;;;;;4975789;28;20206;-88
2021/10/04 09:40:51;;;;;;;2.97;1.93;;;13.60;99.80;;;;;;4988689;28;21027;-87
2021/10/04 09:44:08;;;;;;;2.03;1.87;;;13.80;98.60;;;;;;4978774;28;20196;-88
2021/10/04 09:46:40;;;;;;;2.27;2.07;;;13.90;99.00;;;;;;5007028;28;20201;-88
2021/10/04 09:49:09;;;;;;;2.67;2.07;;;14.00;98.60;;;;;;4980085;28;20216;-87
2021/10/04 09:51:55;;;;;;;2.07;1.97;;;13.90;98.20;;;;;;4995597;28;20206;-88
2021/10/04 09:54:21;;;;;;;3.07;2.00;;;13.80;99.70;;;;;;4980862;28;20202;-88
2021/10/04 09:56:52;;;;;;;2.70;1.90;;;13.80;99.60;;;;;;4997410;28;20182;-88
2021/10/04 09:59:31;;;;;;;2.20;1.97;;;13.80;97.80;;;;;;4983011;28;20198;-89
2021/10/04 10:02:15;;;;;;;1.87;1.77;;;13.80;99.30;;;;;;4991171;28;20226;-88
2021/10/04 10:05:09;;;;;;;1.73;1.63;;;14.00;99.90;;;;;;4974165;28;20235;-88
2021/10/04 10:07:38;;;;;;;1.77;1.40;;;14.10;98.70;;;;;;5001367;28;20170;-88
2021/10/04 10:10:04;;;;;;;1.83;1.70;;;14.00;96.50;;;;;;4992590;28;20196;-87
2021/10/04 10:12:34;;;;;;;1.40;1.40;;;14.20;97.10;;;;;;4995886;28;20196;-87
2021/10/04 10:15:06;;;;;;;1.97;1.70;;;14.30;96.50;;;;;;4996984;28;20191;-87
2021/10/04 10:17:38;;;;;;;1.67;1.57;;;14.30;95.40;;;;;;4998493;28;20704;-86
2021/10/04 10:20:25;;;;;;;1.67;1.53;;;14.30;94.20;;;;;;4997110;28;20270;-88
2021/10/04 10:23:00;;;;;;;1.50;1.40;;;14.40;95.90;;;;;;4981820;28;20226;-88
2021/10/04 10:25:43;;;;;;;1.70;1.60;;;14.40;94.80;;;;;;4977031;28;20235;-88
2021/10/04 10:28:31;;;;;;;1.53;1.43;;;14.50;96.00;;;;;;4994434;28;20184;-88
2021/10/04 10:30:58;;;;;;;2.40;1.80;;;14.60;96.00;;;;;;4996169;28;20221;-89
2021/10/04 10:33:44;;;;;;;2.23;1.70;;;14.40;96.50;;;;;;4995014;28;20194;-87
2021/10/04 10:36:49;;;;;;;2.17;2.00;;;14.50;95.90;;;;;;4981539;28;20228;-87
2021/10/04 10:39:15;;;;;;;1.87;1.70;;;14.40;94.70;;;;;;5007726;28;20197;-87
2021/10/04 10:41:40;;;;;;;1.93;1.83;;;14.20;95.70;;;;;;5008220;28;20244;-86
2021/10/04 10:44:13;;;;;;;3.07;1.90;;;14.20;96.40;;;;;;4993209;28;20547;-85
2021/10/04 10:46:50;;;;;;;2.00;1.73;;;14.20;95.90;;;;;;4977206;28;20207;-86
2021/10/04 10:49:53;;;;;;;1.90;1.67;;;14.30;96.70;;;;;;4994906;28;20196;-86
2021/10/04 10:52:21;;;;;;;2.67;1.50;;;14.40;96.60;;;;;;4994724;28;20720;-86
2021/10/04 10:54:47;;;;;;;1.60;1.50;;;14.50;95.60;;;;;;4994674;28;20274;-87
2021/10/04 10:57:14;;;;;;;1.50;1.40;;;14.60;95.70;;;;;;5008809;28;20195;-86
2021/10/04 10:59:45;;;;;;;1.87;1.70;;;14.80;93.40;;;;;;5098740;27;1469541;-87
2021/10/04 11:03:06;;;;;;;2.03;1.50;;;15.00;92.20;;;;;;5134363;27;20210;-86
2021/10/04 11:05:35;;;;;;;1.60;1.50;;;15.20;92.20;;;;;;5073560;28;20600;-85
2021/10/04 11:08:01;;;;;;;1.77;1.67;;;15.20;92.90;;;;;;5117885;27;20290;-84
2021/10/04 11:10:28;;;;;;;1.60;1.50;;;15.00;93.70;;;;;;5120800;28;20783;-86
2021/10/04 11:13:09;;;;;;;2.30;1.73;;;15.00;91.50;;;;;;5126092;27;20196;-85
2021/10/04 11:15:41;;;;;;;1.60;1.50;;;14.90;92.50;;;;;;5105600;28;20680;-86
2021/10/04 11:18:09;;;;;;;2.63;1.90;;;14.80;91.70;;;;;;5107751;27;20272;-86
2021/10/04 11:20:36;;;;;;;1.80;1.70;;;14.90;92.50;;;;;;5127656;27;20239;-87
2021/10/04 11:23:11;;;;;;;1.50;1.40;;;14.90;93.30;;;;;;5126023;27;20178;-87
2021/10/04 11:25:55;;;;;;;2.67;1.50;;;14.70;91.30;;;;;;5129422;27;20192;-87
2021/10/04 11:28:34;;;;;;;2.83;1.60;;;14.50;94.30;;;;;;5113974;28;20194;-87
2021/10/04 11:31:06;;;;;;;2.07;1.87;;;14.40;95.10;;;;;;5127393;27;20203;-88
2021/10/04 11:33:36;;;;;;;2.03;1.67;;;14.50;93.50;;;;;;5109820;28;20622;-87
2021/10/04 11:36:06;;;;;;;2.20;1.73;;;14.50;95.40;;;;;;5135461;27;20190;-87
2021/10/04 11:38:35;;;;;;;1.70;1.60;;;14.60;94.10;;;;;;5114640;27;20192;-85
2021/10/04 11:41:02;;;;;;;1.63;1.53;;;14.70;92.00;;;;;;5119977;27;20206;-84
2021/10/04 11:43:34;;;;;;;1.77;1.53;;;14.80;92.20;;;;;;5122412;27;20247;-86
2021/10/04 11:46:20;;;;;;;1.70;1.60;;;14.70;92.60;;;;;;5111528;27;20180;-85
2021/10/04 11:48:47;;;;;;;2.90;1.83;;;14.70;94.70;;;;;;5122017;27;20182;-86
2021/10/04 11:51:26;;;;;;;2.20;2.00;;;14.80;93.60;;;;;;5127804;27;20222;-86
2021/10/04 11:53:52;;;;;;;2.07;1.73;;;14.90;94.20;;;;;;5129857;27;20594;-86
2021/10/04 11:56:19;;;;;;;2.00;1.90;;;14.90;94.30;;;;;;5129678;28;20201;-85
2021/10/04 11:58:58;;;;;;;1.97;1.70;;;14.90;95.00;;;;;;5114470;28;20270;-86
2021/10/04 12:01:41;;;;;;;1.70;1.60;;;15.00;93.90;;;;;;5108762;28;20557;-86
2021/10/04 12:04:13;;;;;;;1.97;1.87;;;15.00;92.80;;;;;;5111843;27;20261;-86
2021/10/04 12:06:42;;;;;;;1.90;1.80;;;15.00;94.00;;;;;;5100006;28;20185;-86
2021/10/04 12:09:22;;;;;;;2.10;1.57;;;15.00;95.40;;;;;;5088490;28;20201;-86
2021/10/04 12:11:57;;;;;;;1.70;1.60;;;14.90;94.50;;;;;;5097025;28;20221;-86
2021/10/04 12:14:25;;;;;;;1.50;1.40;;;14.90;92.80;;;;;;5100625;28;20197;-86
2021/10/04 12:16:53;;;;;;;1.97;1.83;;;14.80;95.60;;;;;;5118127;28;20343;-87
2021/10/04 12:19:19;;;;;;;2.00;1.50;;;14.70;95.50;;;;;;5098905;28;20498;-87
2021/10/04 12:21:52;;;;;;;2.00;1.63;;;14.80;96.50;;;;;;5097754;28;20205;-87
2021/10/04 12:24:27;;;;;;;1.60;1.50;;;15.00;94.00;;;;;;5107163;28;20189;-85
2021/10/04 12:27:11;;;;;;;1.90;1.50;;;15.10;92.70;;;;;;5105517;28;20181;-86
2021/10/04 12:29:45;;;;;;;1.70;1.60;;;15.20;91.30;;;;;;5095954;28;20249;-87
2021/10/04 12:32:45;;;;;;;5.80;1.70;;;15.10;90.90;;;;;;5110960;28;20205;-86
2021/10/04 12:35:18;;;;;;;1.70;1.60;;;14.90;91.80;;;;;;5113714;28;20202;-86
2021/10/04 12:37:53;;;;;;;1.50;1.40;;;14.80;91.50;;;;;;5112506;28;20204;-87
2021/10/04 12:40:23;;;;;;;1.70;1.60;;;14.80;90.30;;;;;;5114604;28;20196;-85
2021/10/04 12:42:57;;;;;;;2.00;1.60;;;14.70;91.80;;;;;;5093839;28;20199;-85
2021/10/04 12:45:23;;;;;;;1.73;1.63;;;14.80;93.20;;;;;;5096315;28;20189;-87
2021/10/04 12:47:54;;;;;;;2.00;1.60;;;15.00;92.50;;;;;;5114425;28;20698;-86
2021/10/04 12:50:22;;;;;;;1.90;1.70;;;15.00;91.90;;;;;;5115333;28;20198;-86
2021/10/04 12:52:48;;;;;;;1.63;1.50;;;15.00;90.80;;;;;;5113830;28;20197;-87
2021/10/04 12:55:13;;;;;;;1.80;1.70;;;15.00;93.10;;;;;;5114910;28;20182;-87
2021/10/04 12:57:39;;;;;;;1.53;1.43;;;15.10;92.00;;;;;;5113672;28;20811;-87
2021/10/04 13:00:08;;;;;;;1.90;1.70;;;15.20;90.90;;;;;;5111622;28;20204;-87
2021/10/04 13:02:34;;;;;;;1.60;1.50;;;15.20;92.20;;;;;;5107400;28;20188;-87
2021/10/04 13:05:01;;;;;;;1.80;1.70;;;15.20;91.00;;;;;;5113923;28;20211;-88
2021/10/04 13:07:29;;;;;;;1.63;1.53;;;15.30;91.30;;;;;;5120453;28;20237;-87